map of BZZ home
BZZ - Airport
Location
City:  Oxford, Oxfordshire, England, United Kingdom
Name:RAF Brize Norton
ICAO:EGVN
IATA:BZZ

Details
Type:Airport (Aerodrome, Airfield)
Use:Military, International (customs port of entry)
Latitude:5145'00"N (51.749964)
Longitude:135'01"W (-1.583616)
Datum:WGS 1984
Elevation:288 ft (88 m)
Variation:0.61W (WMM2015v2 magnetic declination)
0.19 annual change
Runways:1
Longest:10007 × 184 ft (3050 × 56 m), paved

Time
Time Zone:UTC+0 (DST+1)
Local Time:

Weather
METAR:EGVN 041350Z 23004KT 9999 FEW006 BKN023 11/09 Q1015 WHT BECMG BKN025 BLU
TAF:EGVN 041340Z 0415/0515 26008KT 9999 SCT025 PROB30 0500/0509 0800 FG BKN001 PROB30
TEMPO 0501/0507 FZFG
TEMPO 0509/0512 BKN010
BECMG 0512/0515 -RA BKN008

Related Locations
Nearby:
Farthest:NZBA: 11887 mi / 19131 km
Balclutha, OTA, NZ

Find:

   beyond  
but within

Other Information
Maps:
NOTAMs:
Links:
Sources:

  
  • flag of United Kingdom
  • flag of England
  • flag of Royal Air Force
  

Sectional Chart

Flight Planning
at skyvector.com

Satellite Image

Google Maps Satellite view

 

Copyright © 2004-2019 Karl L. Swartz. All rights reserved.
The Great Circle Mapper name and logo are trademarks of the Great Circle Mapper.
All other trademarks mentioned herein belong to their respective owners.
Please see credits for attibutions and further copyright information.

  Follow gcmap on Facebook Follow gcmap on Twitter GCmap on LinkedIn

hCard Microformat

Geo Microformat